Time,TemperatureF,DewpointF,PressureIn,WindDirection,WindDirectionDegrees,WindSpeedMPH,WindSpeedGustMPH,Humidity,HourlyPrecipIn,Conditions,Clouds,dailyrainin,SoftwareType,DateUTC
2013-03-26 00:04:00,30.7,24.4,29.72,SE,135,4.1,4.1,77,0.00,,OVC,0.00,WeatherDisplay:10.37,2013-03-26 00:04:00,
2013-03-26 00:09:00,30.6,24.2,29.73,NNE,22,10.3,10.4,77,0.00,,OVC,0.00,WeatherDisplay:10.37,2013-03-26 00:09:00,
2013-03-26 00:14:00,30.7,24.4,29.73,ENE,68,4.2,5.8,77,0.00,,OVC,0.00,WeatherDisplay:10.37,2013-03-26 00:14:00,
2013-03-26 00:19:00,30.6,24.2,29.72,ENE,68,8.7,11.5,77,0.00,,OVC,0.00,WeatherDisplay:10.37,2013-03-26 00:19:00,
2013-03-26 00:24:00,30.6,24.2,29.72,NNE,22,10.9,10.9,77,0.00,,OVC,0.00,WeatherDisplay:10.37,2013-03-26 00:24:00,
2013-03-26 00:29:00,30.6,24.2,29.72,ENE,68,6.9,6.9,77,0.00,,OVC,0.00,WeatherDisplay:10.37,2013-03-26 00:29:00,
2013-03-26 00:34:00,30.7,24.4,29.72,NE,45,6.8,10.4,77,0.00,,OVC,0.00,WeatherDisplay:10.37,2013-03-26 00:34:00,
2013-03-26 00:39:00,30.7,24.4,29.72,ESE,112,3.5,3.5,77,0.00,,OVC,0.00,WeatherDisplay:10.37,2013-03-26 00:39:00,
2013-03-26 00:44:00,30.6,24.2,29.72,ENE,68,5.8,10.4,77,0.00,,OVC,0.00,WeatherDisplay:10.37,2013-03-26 00:44:00,
2013-03-26 00:49:00,30.7,24.7,29.72,NE,45,6.1,6.1,78,0.00,,OVC,0.00,WeatherDisplay:10.37,2013-03-26 00:49:00,
2013-03-26 00:54:00,30.6,24.5,29.72,NE,45,5.9,8.1,78,0.00,,OVC,0.00,WeatherDisplay:10.37,2013-03-26 00:54:00,
2013-03-26 00:59:00,30.7,25.0,29.72,NE,45,4.8,11.5,79,0.00,,OVC,0.00,WeatherDisplay:10.37,2013-03-26 00:59:00,
2013-03-26 01:04:00,30.7,25.0,29.72,NE,45,10.5,10.5,79,0.00,,OVC,0.00,WeatherDisplay:10.37,2013-03-26 01:04:00,
2013-03-26 01:09:00,30.7,25.0,29.71,ENE,68,4.5,5.8,79,0.00,,OVC,0.00,WeatherDisplay:10.37,2013-03-26 01:09:00,
2013-03-26 01:14:00,30.7,25.3,29.71,SE,135,2.9,2.9,80,0.00,,OVC,0.00,WeatherDisplay:10.37,2013-03-26 01:14:00,
2013-03-26 01:19:00,30.6,25.1,29.71,ENE,68,2.7,9.2,80,0.00,,OVC,0.00,WeatherDisplay:10.37,2013-03-26 01:19:00,
2013-03-26 01:24:00,30.7,25.3,29.71,NE,45,0.9,3.5,80,0.00,,OVC,0.00,WeatherDisplay:10.37,2013-03-26 01:24:00,
2013-03-26 01:29:00,30.6,25.1,29.71,NE,45,6.9,6.9,80,0.00,,OVC,0.00,WeatherDisplay:10.37,2013-03-26 01:29:00,
2013-03-26 01:34:00,30.6,25.1,29.71,NNE,22,6.4,10.4,80,0.00,,OVC,0.00,WeatherDisplay:10.37,2013-03-26 01:34:00,
2013-03-26 01:39:00,30.4,24.9,29.71,NE,45,1.4,2.3,80,0.00,,OVC,0.00,WeatherDisplay:10.37,2013-03-26 01:39:00,
2013-03-26 01:44:00,30.4,25.2,29.71,ENE,68,7.2,7.2,81,0.00,,OVC,0.00,WeatherDisplay:10.37,2013-03-26 01:44:00,
2013-03-26 01:49:00,30.2,25.1,29.71,East,90,8.7,9.2,81,0.00,,OVC,0.00,WeatherDisplay:10.37,2013-03-26 01:49:00,
2013-03-26 01:54:00,30.0,24.9,29.71,NNE,22,3.8,0.0,81,0.00,,OVC,0.00,WeatherDisplay:10.37,2013-03-26 01:54:00,
2013-03-26 01:59:00,30.0,24.9,29.71,NNE,22,2.2,2.3,81,0.00,,OVC,0.00,WeatherDisplay:10.37,2013-03-26 01:59:00,
2013-03-26 02:04:00,30.0,24.9,29.71,ENE,68,6.9,11.5,81,0.00,,OVC,0.00,WeatherDisplay:10.37,2013-03-26 02:04:00,
2013-03-26 02:09:00,30.0,24.9,29.71,NNE,22,5.3,5.8,81,0.00,,OVC,0.00,WeatherDisplay:10.37,2013-03-26 02:09:00,
2013-03-26 02:14:00,30.0,24.9,29.71,NNE,22,4.5,8.1,81,0.00,,OVC,0.00,WeatherDisplay:10.37,2013-03-26 02:14:00,
2013-03-26 02:19:00,30.0,24.9,29.70,NE,45,3.9,5.8,81,0.00,,OVC,0.00,WeatherDisplay:10.37,2013-03-26 02:19:00,
2013-03-26 02:24:00,30.2,25.1,29.70,NE,45,8.6,8.6,81,0.00,,OVC,0.00,WeatherDisplay:10.37,2013-03-26 02:24:00,
2013-03-26 02:29:00,30.4,25.2,29.70,NNE,22,2.9,3.5,81,0.00,,OVC,0.00,WeatherDisplay:10.37,2013-03-26 02:29:00,
2013-03-26 02:34:00,30.4,25.2,29.70,East,90,7.3,7.3,81,0.00,,OVC,0.00,WeatherDisplay:10.37,2013-03-26 02:34:00,
2013-03-26 02:39:00,30.4,25.2,29.70,ENE,68,3.6,3.6,81,0.00,,OVC,0.00,WeatherDisplay:10.37,2013-03-26 02:39:00,
2013-03-26 02:44:00,30.6,25.4,29.70,ENE,68,3.4,4.6,81,0.00,,OVC,0.00,WeatherDisplay:10.37,2013-03-26 02:44:00,
2013-03-26 02:49:00,30.6,25.7,29.70,NNE,22,3.5,4.6,82,0.00,,OVC,0.00,WeatherDisplay:10.37,2013-03-26 02:49:00,
2013-03-26 02:54:00,30.6,25.7,29.70,NE,45,4.1,4.7,82,0.00,,OVC,0.00,WeatherDisplay:10.37,2013-03-26 02:54:00,
2013-03-26 02:59:00,30.6,25.7,29.69,ENE,68,7.2,7.2,82,0.00,,OVC,0.00,WeatherDisplay:10.37,2013-03-26 02:59:00,
2013-03-26 03:04:00,30.6,25.7,29.69,NNE,22,5.9,5.9,82,0.00,,OVC,0.00,WeatherDisplay:10.37,2013-03-26 03:04:00,
2013-03-26 03:09:00,30.7,25.9,29.70,NNE,22,7.1,7.1,82,0.00,,OVC,0.00,WeatherDisplay:10.37,2013-03-26 03:09:00,
2013-03-26 03:14:00,30.7,25.9,29.69,NE,45,5.1,5.1,82,0.00,,OVC,0.00,WeatherDisplay:10.37,2013-03-26 03:14:00,
2013-03-26 03:19:00,30.7,25.9,29.69,NE,45,4.9,5.8,82,0.00,,OVC,0.00,WeatherDisplay:10.37,2013-03-26 03:19:00,
2013-03-26 03:24:00,30.7,25.9,29.69,NE,45,3.9,9.2,82,0.00,,OVC,0.00,WeatherDisplay:10.37,2013-03-26 03:24:00,
2013-03-26 03:29:00,30.6,25.7,29.69,NNE,22,6.0,6.0,82,0.00,,OVC,0.00,WeatherDisplay:10.37,2013-03-26 03:29:00,
2013-03-26 03:34:00,30.7,25.9,29.69,NNE,22,5.0,5.0,82,0.00,,OVC,0.00,WeatherDisplay:10.37,2013-03-26 03:34:00,
2013-03-26 03:39:00,30.7,25.9,29.69,North,0,8.3,10.4,82,0.00,,OVC,0.00,WeatherDisplay:10.37,2013-03-26 03:39:00,
2013-03-26 03:44:00,30.7,25.9,29.69,ENE,68,6.0,6.0,82,0.00,,OVC,0.00,WeatherDisplay:10.37,2013-03-26 03:44:00,
2013-03-26 03:49:00,30.7,25.9,29.69,ENE,68,2.5,4.6,82,0.00,,OVC,0.00,WeatherDisplay:10.37,2013-03-26 03:49:00,
2013-03-26 03:54:00,30.7,25.9,29.69,ENE,68,4.8,4.8,82,0.00,,OVC,0.00,WeatherDisplay:10.37,2013-03-26 03:54:00,
2013-03-26 03:59:00,30.7,26.2,29.69,NE,45,2.0,2.3,83,0.00,,OVC,0.00,WeatherDisplay:10.37,2013-03-26 03:59:00,
2013-03-26 04:00:00,30.7,26.2,29.69,NE,45,2.0,2.3,83,0.00,,OVC,0.00,WeatherDisplay:10.37,2013-03-26 04:00:00,
2013-03-26 04:05:00,30.7,26.2,29.69,North,0,3.3,5.8,83,0.00,,OVC,0.00,WeatherDisplay:10.37,2013-03-26 04:05:00,
2013-03-26 04:10:00,30.7,26.2,29.68,NE,45,2.7,4.6,83,0.00,,OVC,0.00,WeatherDisplay:10.37,2013-03-26 04:10:00,
2013-03-26 04:15:00,30.7,26.2,29.68,NNE,22,4.5,4.6,83,0.00,,OVC,0.00,WeatherDisplay:10.37,2013-03-26 04:15:00,
2013-03-26 04:20:00,30.7,25.9,29.68,North,0,4.2,4.2,82,0.00,,OVC,0.00,WeatherDisplay:10.37,2013-03-26 04:20:00,
2013-03-26 04:25:00,30.7,25.9,29.68,NE,45,6.8,8.1,82,0.00,,OVC,0.00,WeatherDisplay:10.37,2013-03-26 04:25:00,
2013-03-26 04:30:00,30.7,25.9,29.68,NE,45,3.4,3.5,82,0.00,,OVC,0.00,WeatherDisplay:10.37,2013-03-26 04:30:00,
2013-03-26 04:35:00,30.7,25.9,29.68,East,90,2.7,3.5,82,0.00,,OVC,0.00,WeatherDisplay:10.37,2013-03-26 04:35:00,
2013-03-26 04:40:00,30.7,25.9,29.68,North,0,8.0,8.0,82,0.00,,OVC,0.00,WeatherDisplay:10.37,2013-03-26 04:40:00,
2013-03-26 04:45:00,30.6,25.7,29.69,ENE,68,2.6,3.5,82,0.00,,OVC,0.00,WeatherDisplay:10.37,2013-03-26 04:45:00,
2013-03-26 04:50:00,30.4,25.5,29.69,NE,45,2.0,5.8,82,0.00,,OVC,0.00,WeatherDisplay:10.37,2013-03-26 04:50:00,
2013-03-26 04:55:00,30.4,25.5,29.68,NNE,22,4.4,4.6,82,0.00,,OVC,0.00,WeatherDisplay:10.37,2013-03-26 04:55:00,
2013-03-26 05:00:00,30.4,25.5,29.68,East,90,6.0,6.0,82,0.00,,OVC,0.00,WeatherDisplay:10.37,2013-03-26 05:00:00,
2013-03-26 05:05:00,30.4,25.5,29.69,NE,45,6.1,6.9,82,0.00,,OVC,0.00,WeatherDisplay:10.37,2013-03-26 05:05:00,
2013-03-26 05:10:00,30.4,25.8,29.69,ENE,68,2.2,3.5,83,0.00,,OVC,0.00,WeatherDisplay:10.37,2013-03-26 05:10:00,
2013-03-26 05:15:00,30.6,26.0,29.69,NE,45,2.6,5.8,83,0.00,,OVC,0.00,WeatherDisplay:10.37,2013-03-26 05:15:00,
2013-03-26 05:20:00,30.7,26.2,29.68,East,90,2.3,2.3,83,0.00,,OVC,0.00,WeatherDisplay:10.37,2013-03-26 05:20:00,
2013-03-26 05:25:00,30.6,26.0,29.68,NNE,22,3.7,6.9,83,0.00,,OVC,0.00,WeatherDisplay:10.37,2013-03-26 05:25:00,
2013-03-26 05:30:00,30.7,26.2,29.68,ENE,68,3.6,3.6,83,0.00,,OVC,0.00,WeatherDisplay:10.37,2013-03-26 05:30:00,
2013-03-26 05:35:00,30.7,26.2,29.68,NNE,22,5.3,5.8,83,0.00,,OVC,0.00,WeatherDisplay:10.37,2013-03-26 05:35:00,
2013-03-26 05:40:00,30.7,26.2,29.68,NE,45,4.8,4.8,83,0.00,,OVC,0.00,WeatherDisplay:10.37,2013-03-26 05:40:00,
2013-03-26 05:45:00,30.6,26.0,29.68,NNE,22,7.0,7.0,83,0.00,,OVC,0.00,WeatherDisplay:10.37,2013-03-26 05:45:00,
2013-03-26 05:50:00,30.6,26.0,29.68,NE,45,6.7,6.7,83,0.00,,OVC,0.00,WeatherDisplay:10.37,2013-03-26 05:50:00,
2013-03-26 05:55:00,30.4,25.8,29.68,ENE,68,3.1,4.6,83,0.00,,OVC,0.00,WeatherDisplay:10.37,2013-03-26 05:55:00,
2013-03-26 06:00:00,30.2,25.7,29.68,NNE,22,5.6,5.8,83,0.00,,OVC,0.00,WeatherDisplay:10.37,2013-03-26 06:00:00,
2013-03-26 06:05:00,30.0,25.5,29.68,ENE,68,4.8,5.8,83,0.00,,OVC,0.00,WeatherDisplay:10.37,2013-03-26 06:05:00,
2013-03-26 06:10:00,29.8,25.3,29.68,ENE,68,2.6,3.5,83,0.00,,OVC,0.00,WeatherDisplay:10.37,2013-03-26 06:10:00,
2013-03-26 06:15:00,29.5,25.0,29.68,NNE,22,2.8,4.6,83,0.00,,OVC,0.00,WeatherDisplay:10.37,2013-03-26 06:15:00,
2013-03-26 06:20:00,29.5,25.0,29.68,NE,45,1.9,0.0,83,0.00,,OVC,0.00,WeatherDisplay:10.37,2013-03-26 06:20:00,
2013-03-26 06:25:00,29.1,24.6,29.68,NE,45,0.9,4.6,83,0.00,,OVC,0.00,WeatherDisplay:10.37,2013-03-26 06:25:00,
2013-03-26 06:30:00,29.1,24.6,29.68,NE,45,4.1,4.1,83,0.00,,OVC,0.00,WeatherDisplay:10.37,2013-03-26 06:30:00,
2013-03-26 06:35:00,29.1,24.6,29.68,NE,45,5.6,6.9,83,0.00,,OVC,0.00,WeatherDisplay:10.37,2013-03-26 06:35:00,
2013-03-26 06:40:00,29.1,24.6,29.68,NE,45,3.4,3.5,83,0.00,,OVC,0.00,WeatherDisplay:10.37,2013-03-26 06:40:00,
2013-03-26 06:45:00,29.3,24.8,29.68,NE,45,3.6,4.6,83,0.00,,OVC,0.00,WeatherDisplay:10.37,2013-03-26 06:45:00,
2013-03-26 06:50:00,29.5,25.2,29.68,NNE,22,0.0,0.0,84,0.00,,OVC,0.00,WeatherDisplay:10.37,2013-03-26 06:50:00,
2013-03-26 06:55:00,29.5,25.2,29.68,NE,45,3.7,3.7,84,0.00,,OVC,0.00,WeatherDisplay:10.37,2013-03-26 06:55:00,
2013-03-26 07:00:00,29.5,25.2,29.68,NE,45,0.1,2.3,84,0.00,,OVC,0.00,WeatherDisplay:10.37,2013-03-26 07:00:00,
2013-03-26 07:05:00,29.8,25.6,29.68,NE,45,3.7,3.7,84,0.00,,OVC,0.00,WeatherDisplay:10.37,2013-03-26 07:05:00,
2013-03-26 07:10:00,30.0,25.8,29.68,NNE,22,2.1,2.1,84,0.00,,OVC,0.00,WeatherDisplay:10.37,2013-03-26 07:10:00,
2013-03-26 07:15:00,30.2,25.9,29.68,NNE,22,5.7,5.8,84,0.00,,OVC,0.00,WeatherDisplay:10.37,2013-03-26 07:15:00,
2013-03-26 07:20:00,30.2,25.9,29.68,East,90,2.3,5.8,84,0.00,,OVC,0.00,WeatherDisplay:10.37,2013-03-26 07:20:00,
2013-03-26 07:25:00,30.6,26.3,29.68,NE,45,5.9,6.9,84,0.00,,OVC,0.00,WeatherDisplay:10.37,2013-03-26 07:25:00,
2013-03-26 07:30:00,30.7,26.5,29.68,NNE,22,4.9,5.8,84,0.00,,OVC,0.00,WeatherDisplay:10.37,2013-03-26 07:30:00,
2013-03-26 07:35:00,30.9,26.7,29.69,NE,45,5.1,5.8,84,0.00,,OVC,0.00,WeatherDisplay:10.37,2013-03-26 07:35:00,
2013-03-26 07:40:00,30.9,26.7,29.69,NE,45,1.7,2.3,84,0.00,,OVC,0.00,WeatherDisplay:10.37,2013-03-26 07:40:00,
2013-03-26 07:45:00,31.3,27.0,29.68,NE,45,3.4,4.6,84,0.00,,OVC,0.00,WeatherDisplay:10.37,2013-03-26 07:45:00,
2013-03-26 07:50:00,31.3,27.0,29.68,ENE,68,2.5,2.5,84,0.00,,OVC,0.00,WeatherDisplay:10.37,2013-03-26 07:50:00,
2013-03-26 07:55:00,31.6,27.4,29.69,East,90,3.3,3.5,84,0.00,,OVC,0.00,WeatherDisplay:10.37,2013-03-26 07:55:00,
2013-03-26 08:00:00,31.8,27.2,29.69,NE,45,2.5,6.9,83,0.00,,OVC,0.00,WeatherDisplay:10.37,2013-03-26 08:00:00,
2013-03-26 08:05:00,32.2,27.6,29.68,SSE,158,5.3,6.9,83,0.00,,OVC,0.00,WeatherDisplay:10.37,2013-03-26 08:05:00,
2013-03-26 08:10:00,32.2,27.6,29.68,ENE,68,4.3,6.9,83,0.00,,OVC,0.00,WeatherDisplay:10.37,2013-03-26 08:10:00,
2013-03-26 08:15:00,32.4,27.5,29.68,NNE,22,5.1,5.1,82,0.00,,OVC,0.00,WeatherDisplay:10.37,2013-03-26 08:15:00,
2013-03-26 08:20:00,32.5,27.7,29.68,ENE,68,4.4,4.4,82,0.00,,OVC,0.00,WeatherDisplay:10.37,2013-03-26 08:20:00,
2013-03-26 08:25:00,32.7,27.5,29.69,ENE,68,6.0,6.0,81,0.00,,OVC,0.00,WeatherDisplay:10.37,2013-03-26 08:25:00,
2013-03-26 08:30:00,32.7,27.5,29.69,North,0,6.7,6.9,81,0.00,,OVC,0.00,WeatherDisplay:10.37,2013-03-26 08:30:00,
2013-03-26 08:35:00,32.9,27.7,29.69,East,90,1.8,2.3,81,0.00,,OVC,0.00,WeatherDisplay:10.37,2013-03-26 08:35:00,
2013-03-26 08:40:00,33.1,27.6,29.69,NNE,22,5.2,5.2,80,0.00,,OVC,0.00,WeatherDisplay:10.37,2013-03-26 08:40:00,
2013-03-26 08:45:00,33.1,27.6,29.68,ENE,68,5.1,5.8,80,0.00,,OVC,0.00,WeatherDisplay:10.37,2013-03-26 08:45:00,
2013-03-26 08:50:00,33.1,27.3,29.68,NE,45,6.3,6.3,79,0.00,,OVC,0.00,WeatherDisplay:10.37,2013-03-26 08:50:00,
2013-03-26 08:55:00,33.4,27.6,29.69,North,0,5.9,6.9,79,0.00,,OVC,0.00,WeatherDisplay:10.37,2013-03-26 08:55:00,
2013-03-26 09:00:00,33.6,27.8,29.69,ENE,68,7.0,7.0,79,0.00,,OVC,0.00,WeatherDisplay:10.37,2013-03-26 09:00:00,
2013-03-26 09:05:00,33.6,27.8,29.68,NE,45,4.9,10.4,79,0.00,,OVC,0.00,WeatherDisplay:10.37,2013-03-26 09:05:00,
2013-03-26 09:10:00,34.3,28.2,29.68,ENE,68,10.7,12.7,78,0.00,,OVC,0.00,WeatherDisplay:10.37,2013-03-26 09:10:00,
2013-03-26 09:15:00,34.5,28.4,29.69,NE,45,6.7,9.2,78,0.00,,OVC,0.00,WeatherDisplay:10.37,2013-03-26 09:15:00,
2013-03-26 09:20:00,34.7,28.5,29.69,SSE,158,5.0,5.0,78,0.00,,OVC,0.00,WeatherDisplay:10.37,2013-03-26 09:20:00,
2013-03-26 09:25:00,35.4,28.9,29.68,NE,45,8.3,9.2,77,0.00,,OVC,0.00,WeatherDisplay:10.37,2013-03-26 09:25:00,
2013-03-26 09:30:00,35.8,29.3,29.68,East,90,9.5,9.5,77,0.00,,OVC,0.00,WeatherDisplay:10.37,2013-03-26 09:30:00,
2013-03-26 09:35:00,36.0,29.1,29.68,ENE,68,8.2,9.2,76,0.00,,OVC,0.00,WeatherDisplay:10.37,2013-03-26 09:35:00,
2013-03-26 09:40:00,36.3,29.2,29.68,ENE,68,5.5,5.5,75,0.00,,OVC,0.00,WeatherDisplay:10.37,2013-03-26 09:40:00,
2013-03-26 09:45:00,37.4,29.9,29.67,NNE,22,5.3,10.4,74,0.00,,OVC,0.00,WeatherDisplay:10.37,2013-03-26 09:45:00,
2013-03-26 09:50:00,37.8,29.9,29.67,ENE,68,10.1,10.1,73,0.00,,OVC,0.00,WeatherDisplay:10.37,2013-03-26 09:50:00,
2013-03-26 09:55:00,38.5,29.9,29.67,NNE,22,14.2,16.1,71,0.00,,OVC,0.00,WeatherDisplay:10.37,2013-03-26 09:55:00,
2013-03-26 10:00:00,38.8,29.9,29.67,ENE,68,6.4,6.4,70,0.00,,OVC,0.00,WeatherDisplay:10.37,2013-03-26 10:00:00,
2013-03-26 10:05:00,39.0,30.1,29.67,North,0,10.1,10.4,70,0.00,,OVC,0.00,WeatherDisplay:10.37,2013-03-26 10:05:00,
2013-03-26 10:10:00,39.7,30.0,29.67,NNE,22,6.2,6.2,68,0.00,,OVC,0.00,WeatherDisplay:10.37,2013-03-26 10:10:00,
2013-03-26 10:15:00,39.7,29.3,29.67,NNE,22,5.4,6.9,66,0.00,,OVC,0.00,WeatherDisplay:10.37,2013-03-26 10:15:00,
2013-03-26 10:20:00,39.7,29.3,29.67,NE,45,13.1,13.1,66,0.00,,OVC,0.00,WeatherDisplay:10.37,2013-03-26 10:20:00,
2013-03-26 10:25:00,38.5,28.1,29.68,NE,45,9.3,13.8,66,0.00,,OVC,0.00,WeatherDisplay:10.37,2013-03-26 10:25:00,
2013-03-26 10:30:00,37.9,27.6,29.67,NNE,22,11.5,11.5,66,0.00,,OVC,0.00,WeatherDisplay:10.37,2013-03-26 10:30:00,
2013-03-26 10:35:00,37.4,27.1,29.67,NE,45,12.6,13.8,66,0.00,,OVC,0.00,WeatherDisplay:10.37,2013-03-26 10:35:00,
2013-03-26 10:40:00,37.0,26.7,29.67,NNE,22,13.5,17.3,66,0.00,,OVC,0.00,WeatherDisplay:10.37,2013-03-26 10:40:00,
2013-03-26 10:46:00,36.7,26.7,29.67,East,90,6.3,6.9,67,0.00,,OVC,0.00,WeatherDisplay:10.37,2013-03-26 10:46:00,
2013-03-26 10:51:00,36.3,26.8,29.68,ENE,68,3.6,9.2,68,0.00,,OVC,0.00,WeatherDisplay:10.37,2013-03-26 10:51:00,
2013-03-26 10:56:00,36.0,26.4,29.68,ENE,68,5.7,5.8,68,0.00,,OVC,0.00,WeatherDisplay:10.37,2013-03-26 10:56:00,
2013-03-26 11:01:00,36.0,26.4,29.68,NNE,22,7.4,7.4,68,0.00,,OVC,0.00,WeatherDisplay:10.37,2013-03-26 11:01:00,
2013-03-26 11:06:00,36.0,27.1,29.67,NNE,22,4.2,10.4,70,0.00,,OVC,0.00,WeatherDisplay:10.37,2013-03-26 11:06:00,
2013-03-26 11:11:00,36.1,27.3,29.67,NNE,22,5.5,7.4,70,0.00,,OVC,0.00,WeatherDisplay:10.37,2013-03-26 11:11:00,
2013-03-26 11:16:00,36.7,27.8,29.67,NE,45,6.4,11.5,70,0.00,,OVC,0.00,WeatherDisplay:10.37,2013-03-26 11:16:00,
2013-03-26 11:21:00,37.0,28.2,29.67,ENE,68,8.6,9.2,70,0.00,,OVC,0.00,WeatherDisplay:10.37,2013-03-26 11:21:00,
2013-03-26 11:26:00,37.2,28.3,29.67,NNE,22,5.4,8.1,70,0.00,,OVC,0.00,WeatherDisplay:10.37,2013-03-26 11:26:00,
2013-03-26 11:31:00,37.0,27.8,29.67,ENE,68,11.5,11.5,69,0.00,,OVC,0.00,WeatherDisplay:10.37,2013-03-26 11:31:00,
2013-03-26 11:36:00,36.9,28.0,29.67,NNE,22,3.6,3.6,70,0.00,,OVC,0.00,WeatherDisplay:10.37,2013-03-26 11:36:00,
2013-03-26 11:41:00,36.5,27.6,29.67,ENE,68,10.6,12.1,70,0.00,,OVC,0.00,WeatherDisplay:10.37,2013-03-26 11:41:00,
2013-03-26 11:46:00,36.1,27.6,29.67,NNE,22,14.9,16.1,71,0.00,,OVC,0.00,WeatherDisplay:10.37,2013-03-26 11:46:00,
2013-03-26 11:51:00,36.0,28.1,29.67,NE,45,2.6,9.6,73,0.00,,OVC,0.00,WeatherDisplay:10.37,2013-03-26 11:51:00,
2013-03-26 11:56:00,36.5,29.0,29.67,NE,45,8.6,11.5,74,0.00,,OVC,0.00,WeatherDisplay:10.37,2013-03-26 11:56:00,
2013-03-26 12:01:00,37.0,29.5,29.67,East,90,3.8,3.8,74,0.00,,OVC,0.00,WeatherDisplay:10.37,2013-03-26 12:01:00,
2013-03-26 12:06:00,37.0,29.8,29.66,NE,45,8.6,9.2,75,0.00,,OVC,0.00,WeatherDisplay:10.37,2013-03-26 12:06:00,
2013-03-26 12:11:00,37.0,29.8,29.66,ENE,68,9.1,10.4,75,0.00,,OVC,0.00,WeatherDisplay:10.37,2013-03-26 12:11:00,
2013-03-26 12:16:00,37.0,29.5,29.66,East,90,5.1,8.1,74,0.00,,OVC,0.00,WeatherDisplay:10.37,2013-03-26 12:16:00,
2013-03-26 12:21:00,37.0,29.2,29.66,ESE,112,8.9,10.4,73,0.00,,OVC,0.00,WeatherDisplay:10.37,2013-03-26 12:21:00,
2013-03-26 12:26:00,36.7,28.2,29.66,ENE,68,8.8,12.5,71,0.00,,OVC,0.00,WeatherDisplay:10.37,2013-03-26 12:26:00,
2013-03-26 12:32:00,36.7,28.2,29.66,NE,45,2.5,3.5,71,0.00,,OVC,0.00,WeatherDisplay:10.37,2013-03-26 12:32:00,
2013-03-26 12:37:00,36.7,28.2,29.66,East,90,5.6,6.9,71,0.00,,OVC,0.00,WeatherDisplay:10.37,2013-03-26 12:37:00,
2013-03-26 12:42:00,36.9,28.0,29.66,NE,45,8.4,8.4,70,0.00,,OVC,0.00,WeatherDisplay:10.37,2013-03-26 12:42:00,
2013-03-26 12:47:00,36.7,27.8,29.66,ENE,68,6.5,11.5,70,0.00,,OVC,0.00,WeatherDisplay:10.37,2013-03-26 12:47:00,
2013-03-26 12:52:00,36.5,27.6,29.66,East,90,4.0,10.4,70,0.00,,OVC,0.00,WeatherDisplay:10.37,2013-03-26 12:52:00,
2013-03-26 12:57:00,36.7,27.8,29.65,NNE,22,3.5,11.5,70,0.00,,OVC,0.00,WeatherDisplay:10.37,2013-03-26 12:57:00,
2013-03-26 13:03:00,36.5,27.6,29.65,NE,45,10.0,10.0,70,0.00,,OVC,0.00,WeatherDisplay:10.37,2013-03-26 13:03:00,
2013-03-26 13:08:00,36.5,27.6,29.65,NE,45,5.2,11.5,70,0.00,,OVC,0.00,WeatherDisplay:10.37,2013-03-26 13:08:00,
2013-03-26 13:13:00,36.7,27.5,29.65,ENE,68,7.1,7.1,69,0.00,,OVC,0.00,WeatherDisplay:10.37,2013-03-26 13:13:00,
2013-03-26 13:18:00,36.7,27.5,29.65,NNE,22,9.4,11.5,69,0.00,,OVC,0.00,WeatherDisplay:10.37,2013-03-26 13:18:00,
2013-03-26 13:23:00,36.9,27.6,29.65,SSE,158,7.5,8.1,69,0.00,,OVC,0.00,WeatherDisplay:10.37,2013-03-26 13:23:00,
2013-03-26 13:28:00,37.0,27.5,29.65,NNE,22,7.5,8.1,68,0.00,,OVC,0.00,WeatherDisplay:10.37,2013-03-26 13:28:00,
2013-03-26 13:33:00,37.0,27.5,29.64,East,90,6.9,6.9,68,0.00,,OVC,0.00,WeatherDisplay:10.37,2013-03-26 13:33:00,
2013-03-26 13:38:00,37.0,27.5,29.64,North,0,4.9,4.9,68,0.00,,OVC,0.00,WeatherDisplay:10.37,2013-03-26 13:38:00,
2013-03-26 13:43:00,36.9,26.9,29.64,NNE,22,15.1,19.6,67,0.00,,OVC,0.00,WeatherDisplay:10.37,2013-03-26 13:43:00,
2013-03-26 13:48:00,36.9,26.9,29.64,NNE,22,6.9,6.9,67,0.00,,OVC,0.00,WeatherDisplay:10.37,2013-03-26 13:48:00,
2013-03-26 13:53:00,37.0,27.1,29.64,SE,135,5.5,7.4,67,0.00,,OVC,0.00,WeatherDisplay:10.37,2013-03-26 13:53:00,
2013-03-26 13:58:00,37.2,27.3,29.64,NNE,22,5.3,5.3,67,0.00,,OVC,0.00,WeatherDisplay:10.37,2013-03-26 13:58:00,
2013-03-26 14:03:00,37.2,26.9,29.64,ENE,68,6.5,7.4,66,0.00,,OVC,0.00,WeatherDisplay:10.37,2013-03-26 14:03:00,
2013-03-26 14:08:00,37.0,26.4,29.64,SSE,158,7.3,7.3,65,0.00,,OVC,0.00,WeatherDisplay:10.37,2013-03-26 14:08:00,
2013-03-26 14:13:00,36.9,26.6,29.64,NNW,338,12.2,13.8,66,0.00,,OVC,0.00,WeatherDisplay:10.37,2013-03-26 14:13:00,
2013-03-26 14:18:00,36.3,26.0,29.64,ENE,68,18.6,18.6,66,0.00,,OVC,0.00,WeatherDisplay:10.37,2013-03-26 14:18:00,
2013-03-26 14:23:00,35.8,26.6,29.64,NE,45,9.7,11.5,69,0.00,,OVC,0.00,WeatherDisplay:10.37,2013-03-26 14:23:00,
2013-03-26 14:28:00,35.8,26.9,29.64,NNE,22,4.9,4.9,70,0.00,,OVC,0.00,WeatherDisplay:10.37,2013-03-26 14:28:00,
2013-03-26 14:33:00,35.4,26.6,29.64,ESE,112,4.4,4.6,70,0.00,,OVC,0.00,WeatherDisplay:10.37,2013-03-26 14:33:00,
2013-03-26 14:38:00,35.4,26.9,29.64,NE,45,5.4,10.4,71,0.00,,OVC,0.00,WeatherDisplay:10.37,2013-03-26 14:38:00,
2013-03-26 14:43:00,36.0,27.8,29.64,NE,45,9.3,12.7,72,0.00,,OVC,0.00,WeatherDisplay:10.37,2013-03-26 14:43:00,
2013-03-26 14:48:00,36.0,27.5,29.64,NE,45,9.4,9.4,71,0.00,,OVC,0.00,WeatherDisplay:10.37,2013-03-26 14:48:00,
2013-03-26 14:53:00,36.0,27.5,29.64,NNE,22,11.8,11.8,71,0.00,,OVC,0.00,WeatherDisplay:10.37,2013-03-26 14:53:00,
2013-03-26 14:58:00,35.8,27.3,29.64,NE,45,6.5,6.5,71,0.00,,OVC,0.00,WeatherDisplay:10.37,2013-03-26 14:58:00,
2013-03-26 15:03:00,36.0,27.5,29.64,NE,45,10.3,10.4,71,0.00,,OVC,0.00,WeatherDisplay:10.37,2013-03-26 15:03:00,
2013-03-26 15:08:00,35.8,27.3,29.64,ENE,68,9.4,12.7,71,0.00,,OVC,0.00,WeatherDisplay:10.37,2013-03-26 15:08:00,
2013-03-26 15:13:00,35.2,27.1,29.64,ESE,112,4.2,4.6,72,0.00,,OVC,0.00,WeatherDisplay:10.37,2013-03-26 15:13:00,
2013-03-26 15:18:00,35.2,27.1,29.64,East,90,3.7,8.1,72,0.00,,OVC,0.00,WeatherDisplay:10.37,2013-03-26 15:18:00,
2013-03-26 15:23:00,34.7,26.3,29.63,ENE,68,5.9,5.9,71,0.00,,OVC,0.00,WeatherDisplay:10.37,2013-03-26 15:23:00,
2013-03-26 15:28:00,34.7,26.3,29.63,ESE,112,13.7,17.3,71,0.00,,OVC,0.00,WeatherDisplay:10.37,2013-03-26 15:28:00,
2013-03-26 15:33:00,35.2,26.8,29.63,ESE,112,8.8,12.7,71,0.00,,OVC,0.00,WeatherDisplay:10.37,2013-03-26 15:33:00,
2013-03-26 15:38:00,35.2,27.1,29.63,ENE,68,10.8,10.8,72,0.00,,OVC,0.00,WeatherDisplay:10.37,2013-03-26 15:38:00,
2013-03-26 15:43:00,35.4,26.6,29.64,SE,135,5.5,8.1,70,0.00,,OVC,0.00,WeatherDisplay:10.37,2013-03-26 15:43:00,
2013-03-26 15:48:00,35.2,26.4,29.63,ENE,68,7.0,7.0,70,0.00,,OVC,0.00,WeatherDisplay:10.37,2013-03-26 15:48:00,
2013-03-26 15:53:00,34.9,26.1,29.63,NNE,22,2.4,6.9,70,0.00,,OVC,0.00,WeatherDisplay:10.37,2013-03-26 15:53:00,
2013-03-26 15:58:00,34.9,26.1,29.63,NNE,22,3.0,5.8,70,0.00,,OVC,0.00,WeatherDisplay:10.37,2013-03-26 15:58:00,
2013-03-26 16:03:00,34.9,26.1,29.63,NE,45,6.2,17.3,70,0.00,,OVC,0.00,WeatherDisplay:10.37,2013-03-26 16:03:00,
2013-03-26 16:08:00,34.9,26.1,29.63,NNE,22,14.5,14.5,70,0.00,,OVC,0.00,WeatherDisplay:10.37,2013-03-26 16:08:00,
2013-03-26 16:13:00,34.9,26.4,29.63,SE,135,7.7,9.2,71,0.00,,OVC,0.00,WeatherDisplay:10.37,2013-03-26 16:13:00,
2013-03-26 16:18:00,34.9,26.4,29.64,North,0,4.2,4.2,71,0.00,,OVC,0.00,WeatherDisplay:10.37,2013-03-26 16:18:00,
2013-03-26 16:23:00,34.9,26.4,29.63,East,90,3.8,3.8,71,0.00,,OVC,0.00,WeatherDisplay:10.37,2013-03-26 16:23:00,
2013-03-26 16:28:00,34.9,26.4,29.63,SE,135,4.4,8.3,71,0.00,,OVC,0.00,WeatherDisplay:10.37,2013-03-26 16:28:00,
2013-03-26 16:33:00,34.5,26.1,29.63,ENE,68,10.8,11.5,71,0.00,,OVC,0.00,WeatherDisplay:10.37,2013-03-26 16:33:00,
2013-03-26 16:38:00,34.5,26.1,29.63,ENE,68,8.4,11.5,71,0.00,,OVC,0.00,WeatherDisplay:10.37,2013-03-26 16:38:00,
2013-03-26 16:43:00,34.2,25.7,29.63,East,90,7.2,10.4,71,0.00,,OVC,0.00,WeatherDisplay:10.37,2013-03-26 16:43:00,
2013-03-26 16:48:00,34.0,25.6,29.63,ENE,68,3.4,3.5,71,0.00,,OVC,0.00,WeatherDisplay:10.37,2013-03-26 16:48:00,
2013-03-26 16:53:00,34.0,25.9,29.63,NNE,22,3.2,5.8,72,0.00,,OVC,0.00,WeatherDisplay:10.37,2013-03-26 16:53:00,
2013-03-26 16:58:00,34.2,26.1,29.62,East,90,7.7,7.7,72,0.00,,OVC,0.00,WeatherDisplay:10.37,2013-03-26 16:58:00,
2013-03-26 17:04:00,34.3,26.2,29.62,East,90,5.0,5.0,72,0.00,,OVC,0.00,WeatherDisplay:10.37,2013-03-26 17:04:00,
2013-03-26 17:09:00,34.3,26.2,29.62,NE,45,5.2,5.8,72,0.00,,OVC,0.00,WeatherDisplay:10.37,2013-03-26 17:09:00,
2013-03-26 17:14:00,34.3,26.2,29.62,East,90,4.2,4.6,72,0.00,,OVC,0.00,WeatherDisplay:10.37,2013-03-26 17:14:00,
2013-03-26 17:19:00,34.0,25.9,29.63,ENE,68,7.5,8.1,72,0.00,,OVC,0.00,WeatherDisplay:10.37,2013-03-26 17:19:00,
2013-03-26 17:24:00,34.0,25.9,29.63,ENE,68,6.9,6.9,72,0.00,,OVC,0.00,WeatherDisplay:10.37,2013-03-26 17:24:00,
2013-03-26 17:29:00,33.4,25.7,29.63,NE,45,5.5,6.9,73,0.00,,OVC,0.00,WeatherDisplay:10.37,2013-03-26 17:29:00,
2013-03-26 17:34:00,33.3,25.5,29.63,East,90,6.9,6.9,73,0.00,,OVC,0.00,WeatherDisplay:10.37,2013-03-26 17:34:00,
2013-03-26 17:39:00,33.3,25.9,29.63,NNE,22,5.2,10.4,74,0.00,,OVC,0.00,WeatherDisplay:10.37,2013-03-26 17:39:00,
2013-03-26 17:44:00,33.1,25.7,29.63,East,90,4.6,4.6,74,0.00,,OVC,0.00,WeatherDisplay:10.37,2013-03-26 17:44:00,
2013-03-26 17:49:00,33.1,25.4,29.64,ESE,112,15.3,16.1,73,0.00,,OVC,0.00,WeatherDisplay:10.37,2013-03-26 17:49:00,
2013-03-26 17:54:00,33.3,25.5,29.63,ENE,68,4.4,6.9,73,0.00,,OVC,0.00,WeatherDisplay:10.37,2013-03-26 17:54:00,
2013-03-26 17:59:00,33.1,25.4,29.64,ENE,68,4.7,5.8,73,0.00,,OVC,0.00,WeatherDisplay:10.37,2013-03-26 17:59:00,
2013-03-26 18:04:00,32.9,25.2,29.64,NNE,22,5.8,5.8,73,0.00,,OVC,0.00,WeatherDisplay:10.37,2013-03-26 18:04:00,
2013-03-26 18:09:00,32.7,25.0,29.64,NE,45,2.9,3.5,73,0.00,,OVC,0.00,WeatherDisplay:10.37,2013-03-26 18:09:00,
2013-03-26 18:14:00,32.7,25.0,29.64,NNE,22,4.9,4.9,73,0.00,,OVC,0.00,WeatherDisplay:10.37,2013-03-26 18:14:00,
2013-03-26 18:19:00,32.5,24.8,29.64,NNE,22,3.1,3.5,73,0.00,,OVC,0.00,WeatherDisplay:10.37,2013-03-26 18:19:00,
2013-03-26 18:24:00,32.4,24.7,29.63,NE,45,3.9,4.6,73,0.00,,OVC,0.00,WeatherDisplay:10.37,2013-03-26 18:24:00,
2013-03-26 18:29:00,32.2,24.8,29.63,East,90,0.9,3.5,74,0.00,,OVC,0.00,WeatherDisplay:10.37,2013-03-26 18:29:00,
2013-03-26 18:34:00,31.8,24.5,29.63,North,0,3.2,3.5,74,0.00,,OVC,0.00,WeatherDisplay:10.37,2013-03-26 18:34:00,
2013-03-26 18:39:00,31.8,24.5,29.64,ENE,68,2.9,3.5,74,0.00,,OVC,0.00,WeatherDisplay:10.37,2013-03-26 18:39:00,
2013-03-26 18:44:00,31.6,24.3,29.64,NE,45,4.0,4.6,74,0.00,,OVC,0.00,WeatherDisplay:10.37,2013-03-26 18:44:00,
2013-03-26 18:49:00,31.5,24.4,29.64,NE,45,7.4,8.1,75,0.00,,OVC,0.00,WeatherDisplay:10.37,2013-03-26 18:49:00,
2013-03-26 18:54:00,31.5,24.4,29.64,ENE,68,3.4,4.6,75,0.00,,OVC,0.00,WeatherDisplay:10.37,2013-03-26 18:54:00,
2013-03-26 18:59:00,31.3,24.3,29.64,NNE,22,10.3,10.4,75,0.00,,OVC,0.00,WeatherDisplay:10.37,2013-03-26 18:59:00,
2013-03-26 19:04:00,31.3,24.3,29.64,NE,45,8.0,8.0,75,0.00,,OVC,0.00,WeatherDisplay:10.37,2013-03-26 19:04:00,
2013-03-26 19:09:00,31.3,24.3,29.65,NE,45,5.3,5.8,75,0.00,,OVC,0.00,WeatherDisplay:10.37,2013-03-26 19:09:00,
2013-03-26 19:14:00,31.3,24.3,29.65,North,0,3.8,3.8,75,0.00,,OVC,0.00,WeatherDisplay:10.37,2013-03-26 19:14:00,
2013-03-26 19:19:00,31.3,24.3,29.64,East,90,4.1,4.6,75,0.00,,OVC,0.00,WeatherDisplay:10.37,2013-03-26 19:19:00,
2013-03-26 19:24:00,31.3,24.3,29.64,East,90,3.2,4.6,75,0.00,,OVC,0.00,WeatherDisplay:10.37,2013-03-26 19:24:00,
2013-03-26 19:29:00,31.3,24.3,29.65,ENE,68,5.4,5.8,75,0.00,,OVC,0.00,WeatherDisplay:10.37,2013-03-26 19:29:00,
2013-03-26 19:34:00,31.3,24.3,29.65,NNE,22,2.7,2.7,75,0.00,,OVC,0.00,WeatherDisplay:10.37,2013-03-26 19:34:00,
2013-03-26 19:39:00,31.1,24.1,29.65,NE,45,5.6,5.8,75,0.00,,OVC,0.00,WeatherDisplay:10.37,2013-03-26 19:39:00,
2013-03-26 19:44:00,31.1,24.1,29.65,NNE,22,1.4,4.0,75,0.00,,OVC,0.00,WeatherDisplay:10.37,2013-03-26 19:44:00,
2013-03-26 19:49:00,30.9,24.2,29.65,NNE,22,4.8,5.8,76,0.00,,OVC,0.00,WeatherDisplay:10.37,2013-03-26 19:49:00,
2013-03-26 19:54:00,30.7,24.1,29.65,NNW,338,2.5,3.5,76,0.00,,OVC,0.00,WeatherDisplay:10.37,2013-03-26 19:54:00,
2013-03-26 19:59:00,30.7,24.1,29.65,NNE,22,4.4,4.4,76,0.00,,OVC,0.00,WeatherDisplay:10.37,2013-03-26 19:59:00,
2013-03-26 20:04:00,30.6,23.9,29.65,NE,45,1.5,2.3,76,0.00,,OVC,0.00,WeatherDisplay:10.37,2013-03-26 20:04:00,
2013-03-26 20:09:00,30.6,23.9,29.65,NNE,22,2.0,2.3,76,0.00,,OVC,0.00,WeatherDisplay:10.37,2013-03-26 20:09:00,
2013-03-26 20:14:00,30.6,23.9,29.65,ENE,68,3.5,3.5,76,0.00,,OVC,0.00,WeatherDisplay:10.37,2013-03-26 20:14:00,
2013-03-26 20:19:00,30.4,23.7,29.65,NNE,22,1.8,2.3,76,0.00,,OVC,0.00,WeatherDisplay:10.37,2013-03-26 20:19:00,
2013-03-26 20:24:00,30.4,23.7,29.65,NNE,22,3.3,3.5,76,0.00,,OVC,0.00,WeatherDisplay:10.37,2013-03-26 20:24:00,
2013-03-26 20:29:00,30.2,23.5,29.65,North,0,3.0,3.5,76,0.00,,OVC,0.00,WeatherDisplay:10.37,2013-03-26 20:29:00,
2013-03-26 20:34:00,30.2,23.5,29.65,NE,45,4.4,4.4,76,0.00,,OVC,0.00,WeatherDisplay:10.37,2013-03-26 20:34:00,
2013-03-26 20:39:00,30.0,23.4,29.65,East,90,0.7,1.1,76,0.00,,OVC,0.00,WeatherDisplay:10.37,2013-03-26 20:39:00,
2013-03-26 20:44:00,30.0,23.4,29.65,NE,45,2.0,2.3,76,0.00,,OVC,0.00,WeatherDisplay:10.37,2013-03-26 20:44:00,
2013-03-26 20:49:00,30.0,23.4,29.65,ENE,68,2.3,2.3,76,0.00,,OVC,0.00,WeatherDisplay:10.37,2013-03-26 20:49:00,
2013-03-26 20:54:00,29.8,23.5,29.65,NNE,22,2.0,0.0,77,0.00,,OVC,0.00,WeatherDisplay:10.37,2013-03-26 20:54:00,
2013-03-26 20:59:00,29.8,23.5,29.65,NE,45,2.5,4.6,77,0.00,,OVC,0.00,WeatherDisplay:10.37,2013-03-26 20:59:00,
2013-03-26 21:04:00,29.7,23.3,29.65,NE,45,3.9,4.6,77,0.00,,OVC,0.00,WeatherDisplay:10.37,2013-03-26 21:04:00,
2013-03-26 21:09:00,29.5,23.2,29.66,ENE,68,4.9,4.9,77,0.00,,OVC,0.00,WeatherDisplay:10.37,2013-03-26 21:09:00,
2013-03-26 21:14:00,29.5,23.2,29.66,East,90,3.2,0.0,77,0.00,,OVC,0.00,WeatherDisplay:10.37,2013-03-26 21:14:00,
2013-03-26 21:19:00,29.3,23.0,29.66,NE,45,1.4,1.4,77,0.00,,OVC,0.00,WeatherDisplay:10.37,2013-03-26 21:19:00,
2013-03-26 21:24:00,29.3,23.0,29.66,ENE,68,2.6,3.5,77,0.00,,OVC,0.00,WeatherDisplay:10.37,2013-03-26 21:24:00,
2013-03-26 21:29:00,29.1,22.8,29.66,NE,45,0.0,0.0,77,0.00,,OVC,0.00,WeatherDisplay:10.37,2013-03-26 21:29:00,
2013-03-26 21:34:00,29.1,22.8,29.65,NNE,22,2.2,2.3,77,0.00,,OVC,0.00,WeatherDisplay:10.37,2013-03-26 21:34:00,
2013-03-26 21:39:00,28.9,22.6,29.64,NNE,22,2.5,2.5,77,0.00,,OVC,0.00,WeatherDisplay:10.37,2013-03-26 21:39:00,
2013-03-26 21:44:00,28.9,22.6,29.64,ENE,68,2.1,0.0,77,0.00,,OVC,0.00,WeatherDisplay:10.37,2013-03-26 21:44:00,
2013-03-26 21:49:00,28.8,22.8,29.65,NNE,22,3.5,3.5,78,0.00,,OVC,0.00,WeatherDisplay:10.37,2013-03-26 21:49:00,
2013-03-26 21:54:00,28.6,22.6,29.65,NE,45,4.3,5.8,78,0.00,,OVC,0.00,WeatherDisplay:10.37,2013-03-26 21:54:00,
2013-03-26 21:59:00,28.6,22.6,29.65,NE,45,1.1,1.1,78,0.00,,OVC,0.00,WeatherDisplay:10.37,2013-03-26 21:59:00,
2013-03-26 22:04:00,28.6,22.6,29.65,NE,45,0.6,3.5,78,0.00,,OVC,0.00,WeatherDisplay:10.37,2013-03-26 22:04:00,
2013-03-26 22:10:00,28.2,22.2,29.64,NNE,22,3.4,3.5,78,0.00,,OVC,0.00,WeatherDisplay:10.37,2013-03-26 22:10:00,
2013-03-26 22:15:00,28.2,22.2,29.65,ENE,68,2.9,3.6,78,0.00,,OVC,0.00,WeatherDisplay:10.37,2013-03-26 22:15:00,
2013-03-26 22:20:00,28.2,22.2,29.65,NE,45,4.3,4.6,78,0.00,,OVC,0.00,WeatherDisplay:10.37,2013-03-26 22:20:00,
2013-03-26 22:25:00,28.2,22.2,29.65,ENE,68,2.6,2.6,78,0.00,,OVC,0.00,WeatherDisplay:10.37,2013-03-26 22:25:00,
2013-03-26 22:30:00,28.2,22.2,29.65,NE,45,2.8,3.5,78,0.00,,OVC,0.00,WeatherDisplay:10.37,2013-03-26 22:30:00,
2013-03-26 22:35:00,28.2,22.2,29.65,East,90,3.2,3.2,78,0.00,,OVC,0.00,WeatherDisplay:10.37,2013-03-26 22:35:00,
2013-03-26 22:40:00,28.2,22.2,29.65,NNW,338,1.8,2.3,78,0.00,,OVC,0.00,WeatherDisplay:10.37,2013-03-26 22:40:00,
2013-03-26 22:45:00,28.0,22.4,29.65,NE,45,4.0,4.0,79,0.00,,OVC,0.00,WeatherDisplay:10.37,2013-03-26 22:45:00,
2013-03-26 22:50:00,28.0,22.4,29.65,NE,45,2.8,3.5,79,0.00,,OVC,0.00,WeatherDisplay:10.37,2013-03-26 22:50:00,
2013-03-26 22:55:00,28.0,22.4,29.65,NE,45,0.0,1.8,79,0.00,,OVC,0.00,WeatherDisplay:10.37,2013-03-26 22:55:00,
2013-03-26 23:00:00,28.0,22.4,29.65,NE,45,2.9,3.5,79,0.00,,OVC,0.00,WeatherDisplay:10.37,2013-03-26 23:00:00,
2013-03-26 23:05:00,27.9,22.2,29.65,NE,45,0.6,3.5,79,0.00,,OVC,0.00,WeatherDisplay:10.37,2013-03-26 23:05:00,
2013-03-26 23:10:00,27.7,22.0,29.64,NE,45,1.8,2.3,79,0.00,,OVC,0.00,WeatherDisplay:10.37,2013-03-26 23:10:00,
2013-03-26 23:15:00,27.7,22.0,29.64,NNE,22,2.3,2.3,79,0.00,,OVC,0.00,WeatherDisplay:10.37,2013-03-26 23:15:00,
2013-03-26 23:20:00,27.3,21.7,29.65,ENE,68,1.1,1.1,79,0.00,,OVC,0.00,WeatherDisplay:10.37,2013-03-26 23:20:00,
2013-03-26 23:25:00,27.3,21.7,29.65,NNE,22,2.3,2.3,79,0.00,,OVC,0.00,WeatherDisplay:10.37,2013-03-26 23:25:00,
2013-03-26 23:30:00,27.3,21.7,29.65,NE,45,0.2,1.1,79,0.00,,OVC,0.00,WeatherDisplay:10.37,2013-03-26 23:30:00,
2013-03-26 23:35:00,27.1,21.5,29.65,East,90,0.8,1.1,79,0.00,,OVC,0.00,WeatherDisplay:10.37,2013-03-26 23:35:00,
2013-03-26 23:40:00,27.1,21.5,29.65,NE,45,0.0,0.0,79,0.00,,OVC,0.00,WeatherDisplay:10.37,2013-03-26 23:40:00,
2013-03-26 23:45:00,27.1,21.5,29.64,ENE,68,0.8,1.3,79,0.00,,OVC,0.00,WeatherDisplay:10.37,2013-03-26 23:45:00,
2013-03-26 23:50:00,27.0,21.3,29.64,NNE,22,0.3,2.3,79,0.00,,OVC,0.00,WeatherDisplay:10.37,2013-03-26 23:50:00,
2013-03-26 23:55:00,27.0,21.6,29.64,NNE,22,4.1,4.6,80,0.00,,OVC,0.00,WeatherDisplay:10.37,2013-03-26 23:55:00,